Startpagina
METAR-TAF:

METAR-TAF

Vliegvelden :

Nouakchott, Mauritanië

Internationale luchthaven van Nouakchott

breedte: 18-18-36N, lengte: 015-58-11W, hoogte: 3 m

Actueel weer

Dit bericht is 16 minuten geleden gemaakt, om 20:00 UTC
Wind 11 kt uit het westzuidwesten
Temperatuur 18°C
Vochtigheid 88%
Druk 1011 hPa
Zicht 10 km of meer
geen wolken onder 1500 m en geen cumulonimbus

METAR: GQNO 242000Z 24011KT CAVOK 18/16 Q1011 NOSIG

Tijdstip: 20:16 (20:16 UTC)

Verwachting

Dit bericht is 3 uur en het 16 minuten geleden gemaakt, om 17:00 UTC
Verwachting geldig van 24 om 18 UTC tot 25 om 24 UTC
Wind 14 kt uit het westen
Zicht: 7000 m
Tijdelijke
van 24 om 21 UTC tot 25 om 10 UTC
Gebroken wolken op 800 ft
Kans 40% :
Tijdelijke
van 25 om 02 UTC tot 25 om 10 UTC
Zicht: 4000 m
nevel
Wijzigt naar
van 25 om 12 UTC tot 25 om 14 UTC
Wind 12 kt uit het noordnoordwesten

TAF: GQNO 241700Z 2418/2524 26014KT 7000 NSC TEMPO 2421/2510 BKN008 PROB40 TEMPO 2502/2510 4000 BR BECMG 2512/2514 34012KT

Waarnemingen en weersverwachtingen van meer dan 4000 vliegvelden (METAR en TAF).

De beschikbare stations zijn de gele en rode punten op de kaart.

Ga met uw muis naar het station om de naam te zien.

Klik dan om waarnemingen en weersverwachtingen te zien.

kaart wijzigen: klik op de groene knoppen met een zwart kruis om in te zoomen, op de groene knop met een streepje om uit te zoomen of op de groene pijlen voor aangrenzende kaarten.


METAR-TAF: